Time;durP1;ratioP1;P1;durP2;ratioP2;P2;SDS_P1;SDS_P2;PMS_P1;PMS_P2;Temp;Humidity;BMP_temperature;BMP_pressure;BME280_temperature;BME280_humidity;BME280_pressure;Samples;Min_cycle;Max_cycle;Signal;HPM_P1;HPM_P2
2023/06/02 00:02:15;;;;;;;4.22;3.17;;;10.40;99.90;;;;;;4937456;28;94831;-33
2023/06/02 00:04:40;;;;;;;4.95;4.07;;;10.40;99.90;;;;;;4937154;28;94884;-32
2023/06/02 00:07:07;;;;;;;4.95;3.50;;;10.40;99.90;;;;;;4936701;28;94937;-35
2023/06/02 00:09:42;;;;;;;6.03;3.05;;;10.40;99.90;;;;;;4937596;28;93780;-31
2023/06/02 00:12:10;;;;;;;7.68;3.97;;;10.40;99.90;;;;;;4936621;28;94699;-34
2023/06/02 00:14:42;;;;;;;10.43;3.10;;;10.40;99.90;;;;;;4937079;28;94441;-36
2023/06/02 00:17:08;;;;;;;7.18;3.67;;;10.50;99.90;;;;;;4937343;28;94597;-31
2023/06/02 00:19:35;;;;;;;7.00;3.35;;;10.50;99.90;;;;;;4936950;28;94121;-36
2023/06/02 00:22:02;;;;;;;6.90;3.53;;;10.50;99.90;;;;;;4937054;28;95247;-33
2023/06/02 00:24:28;;;;;;;8.30;3.78;;;10.40;99.90;;;;;;4919193;28;93532;-33
2023/06/02 00:26:54;;;;;;;7.72;4.78;;;10.40;99.90;;;;;;4919501;28;92217;-31
2023/06/02 00:29:20;;;;;;;8.85;3.40;;;10.40;99.90;;;;;;4937201;28;94382;-32
2023/06/02 00:31:45;;;;;;;7.53;3.83;;;10.40;99.90;;;;;;4935716;28;95675;-33
2023/06/02 00:34:11;;;;;;;11.90;4.38;;;10.40;99.90;;;;;;4936647;28;95622;-33
2023/06/02 00:36:37;;;;;;;10.13;4.18;;;10.40;99.90;;;;;;4919246;28;93684;-32
2023/06/02 00:39:03;;;;;;;7.63;3.40;;;10.40;99.90;;;;;;4936788;28;93607;-33
2023/06/02 00:41:29;;;;;;;4.70;3.35;;;10.40;99.90;;;;;;4936800;28;93899;-32
2023/06/02 00:43:55;;;;;;;9.40;4.22;;;10.30;99.90;;;;;;4936507;28;94218;-30
2023/06/02 00:46:21;;;;;;;12.13;4.72;;;10.30;99.90;;;;;;4937720;28;94400;-35
2023/06/02 00:48:48;;;;;;;14.00;3.40;;;10.30;99.90;;;;;;4940386;28;91633;-33
2023/06/02 00:51:15;;;;;;;8.93;3.63;;;10.30;99.90;;;;;;4939193;28;94527;-32
2023/06/02 00:53:41;;;;;;;6.43;3.40;;;10.20;99.90;;;;;;4922980;28;95585;-31
2023/06/02 00:56:07;;;;;;;10.95;4.07;;;10.20;99.90;;;;;;4939593;28;93886;-31
2023/06/02 00:58:37;;;;;;;11.48;3.05;;;10.20;99.90;;;;;;4939885;28;94278;-36
2023/06/02 01:01:04;;;;;;;7.07;4.55;;;10.20;99.90;;;;;;4921626;28;94685;-34
2023/06/02 01:03:31;;;;;;;6.83;3.63;;;10.10;99.90;;;;;;4922159;28;94874;-33
2023/06/02 01:06:00;;;;;;;10.38;4.95;;;10.10;99.90;;;;;;4940741;28;94593;-32
2023/06/02 01:08:26;;;;;;;7.35;2.63;;;10.10;99.90;;;;;;4939575;28;94535;-32
2023/06/02 01:10:53;;;;;;;10.82;3.33;;;10.00;99.90;;;;;;4922226;28;94886;-31
2023/06/02 01:13:19;;;;;;;7.25;3.55;;;10.00;99.90;;;;;;4940121;28;94463;-31
2023/06/02 01:15:48;;;;;;;6.88;3.33;;;10.00;99.90;;;;;;4939932;28;94836;-34
2023/06/02 01:18:16;;;;;;;15.85;4.00;;;10.00;99.90;;;;;;4939101;28;93714;-32
2023/06/02 01:20:52;;;;;;;8.47;4.23;;;10.00;99.90;;;;;;4938583;28;95786;-34
2023/06/02 01:23:21;;;;;;;15.38;4.05;;;10.00;99.90;;;;;;4938763;28;95679;-34
2023/06/02 01:25:47;;;;;;;10.82;4.35;;;10.00;99.90;;;;;;4939906;28;93646;-31
2023/06/02 01:28:15;;;;;;;4.53;2.67;;;10.00;99.90;;;;;;4939627;28;93316;-34
2023/06/02 01:30:40;;;;;;;10.17;3.87;;;10.00;99.90;;;;;;4939514;28;95527;-31
2023/06/02 01:33:16;;;;;;;8.77;2.88;;;10.00;99.90;;;;;;4939516;28;95316;-35
2023/06/02 01:35:54;;;;;;;9.82;3.78;;;9.90;99.90;;;;;;4939632;28;92851;-31
2023/06/02 01:38:21;;;;;;;12.88;3.63;;;9.90;99.90;;;;;;4939671;28;93470;-31
2023/06/02 01:40:48;;;;;;;6.57;4.00;;;9.90;99.90;;;;;;4939524;28;95155;-34
2023/06/02 01:43:14;;;;;;;11.48;3.63;;;9.90;99.90;;;;;;4939285;28;94734;-35
2023/06/02 01:45:41;;;;;;;5.57;3.28;;;9.90;99.90;;;;;;4938800;28;93661;-33
2023/06/02 01:48:08;;;;;;;7.67;3.57;;;9.90;99.90;;;;;;4938919;28;92868;-34
2023/06/02 01:50:35;;;;;;;7.90;3.67;;;9.90;99.90;;;;;;4939681;28;94224;-34
2023/06/02 01:53:02;;;;;;;10.90;4.60;;;9.90;99.90;;;;;;4939185;28;95696;-35
2023/06/02 01:55:27;;;;;;;4.43;3.20;;;9.90;99.90;;;;;;4939146;28;93460;-29
2023/06/02 01:57:53;;;;;;;8.82;3.17;;;9.90;99.90;;;;;;4939251;28;94580;-34
2023/06/02 02:00:19;;;;;;;7.03;3.88;;;9.90;99.90;;;;;;4938090;28;95042;-34
2023/06/02 02:02:45;;;;;;;10.88;2.53;;;9.90;99.90;;;;;;4939053;28;94192;-36
2023/06/02 02:05:11;;;;;;;7.25;3.22;;;9.90;99.90;;;;;;4939704;28;94546;-31
2023/06/02 02:07:41;;;;;;;11.60;2.88;;;9.80;99.90;;;;;;4939119;28;93168;-31
2023/06/02 02:10:08;;;;;;;6.20;3.83;;;9.90;99.90;;;;;;4937973;28;95314;-32
2023/06/02 02:12:34;;;;;;;5.47;2.90;;;9.90;99.90;;;;;;4920698;28;96223;-34
2023/06/02 02:15:00;;;;;;;11.88;3.90;;;9.90;99.90;;;;;;4939613;28;92221;-32
2023/06/02 02:17:26;;;;;;;10.13;4.05;;;9.90;99.90;;;;;;4938729;28;93266;-33
2023/06/02 02:19:55;;;;;;;11.02;3.42;;;9.90;99.90;;;;;;4938848;28;93819;-33
2023/06/02 02:22:23;;;;;;;11.27;3.92;;;9.90;99.90;;;;;;4938637;28;94713;-32
2023/06/02 02:24:49;;;;;;;11.15;2.95;;;9.90;99.90;;;;;;4939876;28;92175;-31
2023/06/02 02:27:15;;;;;;;10.10;3.22;;;9.90;99.90;;;;;;4938938;28;92452;-30
2023/06/02 02:29:41;;;;;;;4.78;2.97;;;9.90;99.90;;;;;;4939315;28;96083;-31
2023/06/02 02:32:07;;;;;;;7.60;3.50;;;9.90;99.90;;;;;;4938329;28;94478;-33
2023/06/02 02:34:33;;;;;;;5.55;2.72;;;9.90;99.90;;;;;;4937689;28;93955;-35
2023/06/02 02:37:02;;;;;;;12.05;3.20;;;9.90;99.90;;;;;;4921091;28;93507;-32
2023/06/02 02:39:29;;;;;;;13.82;3.63;;;9.90;99.90;;;;;;4939261;28;95096;-31
2023/06/02 02:41:54;;;;;;;10.30;3.25;;;9.90;99.90;;;;;;4937926;28;94141;-33
2023/06/02 02:44:20;;;;;;;10.77;2.85;;;8.70;99.90;;;;;;4938918;28;93199;-31
2023/06/02 02:46:46;;;;;;;8.77;4.10;;;10.10;99.90;;;;;;4938648;28;94587;-33
2023/06/02 02:49:11;;;;;;;8.55;2.67;;;10.00;99.90;;;;;;4938113;28;93799;-32
2023/06/02 02:51:37;;;;;;;9.70;3.97;;;10.10;99.90;;;;;;4939396;28;93746;-30
2023/06/02 02:54:03;;;;;;;9.43;3.47;;;10.00;99.90;;;;;;4938512;28;93798;-32
2023/06/02 02:56:30;;;;;;;8.27;3.13;;;10.00;99.90;;;;;;4938580;28;92133;-33
2023/06/02 02:58:59;;;;;;;4.97;2.72;;;10.10;99.90;;;;;;4937395;28;95919;-32
2023/06/02 03:01:26;;;;;;;3.83;2.85;;;10.20;99.90;;;;;;4937891;28;95482;-31
2023/06/02 03:03:53;;;;;;;9.40;3.25;;;10.20;99.90;;;;;;4938113;28;94143;-30
2023/06/02 03:06:19;;;;;;;8.10;3.00;;;10.30;99.90;;;;;;4920780;28;93448;-30
2023/06/02 03:08:46;;;;;;;11.63;4.57;;;10.20;99.90;;;;;;4937843;28;94809;-31
2023/06/02 03:11:12;;;;;;;13.10;3.33;;;10.30;99.90;;;;;;4919796;28;94831;-32
2023/06/02 03:13:37;;;;;;;11.40;2.65;;;10.20;99.90;;;;;;4938203;28;92829;-32
2023/06/02 03:16:03;;;;;;;6.90;3.50;;;10.20;99.90;;;;;;4938677;28;93161;-33
2023/06/02 03:18:29;;;;;;;8.55;3.25;;;10.30;99.90;;;;;;4920315;28;95175;-32
2023/06/02 03:20:58;;;;;;;10.20;3.72;;;10.30;99.90;;;;;;4937686;28;94710;-34
2023/06/02 03:23:25;;;;;;;11.68;4.55;;;10.30;99.90;;;;;;4936854;28;95480;-31
2023/06/02 03:25:51;;;;;;;13.98;3.15;;;10.30;99.90;;;;;;4937764;28;92647;-34
2023/06/02 03:28:18;;;;;;;10.35;3.80;;;10.30;99.90;;;;;;4937790;28;95085;-31
2023/06/02 03:30:44;;;;;;;6.97;3.25;;;10.30;99.90;;;;;;4937699;28;94735;-31
2023/06/02 03:33:09;;;;;;;20.00;3.95;;;10.30;99.90;;;;;;4937263;28;92517;-33
2023/06/02 03:35:35;;;;;;;6.10;3.08;;;10.30;99.90;;;;;;4938051;28;94837;-31
2023/06/02 03:38:01;;;;;;;7.07;3.00;;;10.30;99.90;;;;;;4937158;28;95009;-32
2023/06/02 03:40:26;;;;;;;16.00;3.97;;;10.30;99.90;;;;;;4937748;28;94785;-35
2023/06/02 03:42:52;;;;;;;13.15;3.80;;;11.50;99.90;;;;;;4938152;28;94775;-32
2023/06/02 03:45:18;;;;;;;6.53;3.70;;;10.20;99.90;;;;;;4936905;28;95031;-35
2023/06/02 03:47:43;;;;;;;7.75;3.17;;;10.20;99.90;;;;;;4937116;28;95513;-30
2023/06/02 03:50:09;;;;;;;7.97;3.22;;;10.20;99.90;;;;;;4936055;28;95875;-34
2023/06/02 03:52:35;;;;;;;10.30;3.05;;;10.30;99.90;;;;;;4938345;28;94729;-33
2023/06/02 03:55:00;;;;;;;8.52;3.47;;;10.20;99.90;;;;;;4936477;28;93503;-34
2023/06/02 03:57:26;;;;;;;10.90;4.75;;;10.20;99.90;;;;;;4937031;28;94813;-33
2023/06/02 03:59:52;;;;;;;7.00;3.45;;;10.20;99.90;;;;;;4946254;28;95473;-32
2023/06/02 04:02:17;;;;;;;7.93;2.78;;;10.20;99.90;;;;;;4956648;28;94605;-34
2023/06/02 04:04:43;;;;;;;8.77;4.13;;;10.20;99.90;;;;;;4957603;28;92819;-30
2023/06/02 04:07:08;;;;;;;6.50;2.35;;;10.40;99.90;;;;;;4939294;28;94655;-31
2023/06/02 04:09:34;;;;;;;10.13;4.05;;;10.30;99.90;;;;;;4957121;28;95062;-34
2023/06/02 04:12:00;;;;;;;8.98;3.50;;;10.20;99.90;;;;;;4956507;28;94376;-32
2023/06/02 04:14:27;;;;;;;4.07;2.78;;;10.30;99.90;;;;;;4956371;28;93518;-31
2023/06/02 04:16:53;;;;;;;3.97;2.78;;;10.30;99.90;;;;;;4956725;28;95202;-32
2023/06/02 04:19:19;;;;;;;8.80;2.85;;;10.30;99.90;;;;;;4956187;28;94590;-30
2023/06/02 04:21:45;;;;;;;10.85;3.97;;;10.30;99.90;;;;;;4955046;28;94698;-35
2023/06/02 04:24:10;;;;;;;6.25;3.22;;;10.40;99.90;;;;;;5008066;22;92494;-33
2023/06/02 04:26:36;;;;;;;11.60;4.00;;;10.40;99.90;;;;;;4976275;28;94277;-31
2023/06/02 04:29:02;;;;;;;16.25;3.65;;;10.40;99.90;;;;;;4976778;28;94421;-33
2023/06/02 04:31:39;;;;;;;3.88;2.00;;;10.30;99.90;;;;;;4976399;28;94695;-35
2023/06/02 04:34:06;;;;;;;5.32;2.72;;;10.40;99.90;;;;;;4975677;28;93505;-33
2023/06/02 04:36:32;;;;;;;8.10;2.50;;;10.40;99.90;;;;;;4945030;28;95603;-33
2023/06/02 04:38:57;;;;;;;8.77;3.28;;;10.40;99.90;;;;;;4961436;28;95475;-32
2023/06/02 04:41:24;;;;;;;9.57;3.42;;;10.50;99.90;;;;;;4976674;28;94245;-32
2023/06/02 04:43:51;;;;;;;6.10;3.45;;;10.50;99.90;;;;;;4976583;28;93840;-31
2023/06/02 04:46:16;;;;;;;11.45;4.07;;;10.50;99.90;;;;;;4975494;28;94444;-31
2023/06/02 04:48:42;;;;;;;10.30;3.50;;;10.50;99.90;;;;;;4974662;28;94869;-36
2023/06/02 04:51:08;;;;;;;8.60;3.38;;;10.60;99.90;;;;;;4976625;28;93342;-32
2023/06/02 04:53:33;;;;;;;5.57;3.05;;;10.60;99.90;;;;;;4975972;28;93478;-35
2023/06/02 04:55:59;;;;;;;5.72;3.70;;;10.60;99.90;;;;;;4974776;28;94680;-30
2023/06/02 04:58:25;;;;;;;8.23;3.65;;;10.70;99.90;;;;;;4975252;28;94759;-32
2023/06/02 05:00:51;;;;;;;3.92;2.22;;;10.70;99.90;;;;;;4975835;28;95471;-33
2023/06/02 05:03:16;;;;;;;9.70;3.50;;;10.70;99.90;;;;;;4975310;28;93683;-32
2023/06/02 05:05:42;;;;;;;9.30;2.80;;;10.70;99.90;;;;;;4975867;28;95325;-31
2023/06/02 05:08:07;;;;;;;8.35;3.00;;;10.80;99.90;;;;;;4975987;28;93870;-32
2023/06/02 05:10:33;;;;;;;10.93;3.60;;;10.80;99.90;;;;;;4975529;28;93464;-34
2023/06/02 05:12:59;;;;;;;12.80;3.83;;;10.80;99.90;;;;;;4975884;28;92819;-34
2023/06/02 05:15:25;;;;;;;8.60;3.33;;;10.90;99.90;;;;;;4975049;28;94702;-31
2023/06/02 05:17:53;;;;;;;11.27;3.38;;;10.90;99.90;;;;;;4976104;28;94563;-34
2023/06/02 05:20:18;;;;;;;9.85;3.85;;;10.90;99.90;;;;;;4975991;28;93400;-33
2023/06/02 05:22:44;;;;;;;6.13;3.42;;;10.90;99.90;;;;;;4975526;28;93612;-32
2023/06/02 05:25:10;;;;;;;6.28;2.83;;;10.90;99.90;;;;;;4974683;28;96472;-36
2023/06/02 05:27:37;;;;;;;5.05;3.00;;;10.90;99.90;;;;;;4967602;28;95507;-31
2023/06/02 05:30:03;;;;;;;15.20;4.78;;;11.00;99.90;;;;;;4956050;28;92176;-31
2023/06/02 05:32:28;;;;;;;7.18;2.88;;;11.10;99.90;;;;;;4956771;28;93880;-31
2023/06/02 05:34:54;;;;;;;12.88;4.10;;;11.00;99.90;;;;;;4971660;28;96076;-31
2023/06/02 05:37:19;;;;;;;13.18;4.57;;;11.10;99.90;;;;;;4978631;28;94623;-35
2023/06/02 05:39:45;;;;;;;6.28;3.15;;;11.10;99.90;;;;;;4978883;28;93295;-32
2023/06/02 05:42:11;;;;;;;14.07;4.40;;;11.10;99.90;;;;;;4976171;28;92343;-32
2023/06/02 05:44:37;;;;;;;7.30;3.13;;;11.10;99.90;;;;;;4945496;28;94956;-33
2023/06/02 05:47:03;;;;;;;9.52;3.80;;;11.10;99.90;;;;;;4960751;28;94097;-33
2023/06/02 05:49:28;;;;;;;8.40;2.97;;;11.20;99.90;;;;;;4978532;28;93387;-31
2023/06/02 05:51:54;;;;;;;6.68;2.60;;;11.20;99.90;;;;;;4978660;28;92575;-33
2023/06/02 05:54:19;;;;;;;14.80;5.18;;;11.20;99.90;;;;;;4978478;28;95004;-32
2023/06/02 05:56:45;;;;;;;11.88;5.50;;;11.20;99.90;;;;;;4978699;28;94537;-34
2023/06/02 05:59:11;;;;;;;7.95;3.75;;;11.20;99.90;;;;;;4977812;28;93334;-32
2023/06/02 06:01:36;;;;;;;6.18;3.60;;;11.30;99.90;;;;;;4979076;28;94025;-32
2023/06/02 06:04:02;;;;;;;11.60;4.35;;;11.30;99.90;;;;;;4978219;28;95654;-33
2023/06/02 06:06:28;;;;;;;4.43;3.05;;;11.40;99.90;;;;;;4978915;28;94045;-31
2023/06/02 06:08:53;;;;;;;19.70;5.07;;;11.40;99.90;;;;;;4961304;28;94118;-34
2023/06/02 06:11:21;;;;;;;11.50;4.65;;;11.40;99.90;;;;;;4976041;28;93360;-35
2023/06/02 06:13:46;;;;;;;8.35;3.00;;;11.50;99.90;;;;;;4942129;28;96166;-34
2023/06/02 06:16:12;;;;;;;12.90;4.28;;;11.50;99.90;;;;;;4975796;28;95382;-32
2023/06/02 06:18:37;;;;;;;14.50;4.15;;;11.60;99.90;;;;;;4976984;28;94936;-34
2023/06/02 06:21:03;;;;;;;8.60;3.58;;;11.60;99.90;;;;;;4958690;28;93878;-33
2023/06/02 06:23:29;;;;;;;7.72;4.07;;;11.70;99.90;;;;;;4957323;28;95179;-35
2023/06/02 06:25:54;;;;;;;10.95;4.22;;;11.70;99.90;;;;;;4993953;28;94534;-33
2023/06/02 06:28:21;;;;;;;9.20;4.10;;;11.70;99.90;;;;;;4996324;28;93556;-32
2023/06/02 06:30:46;;;;;;;8.23;4.18;;;11.70;99.90;;;;;;4996839;28;91729;-31
2023/06/02 06:33:12;;;;;;;10.77;3.97;;;11.80;99.90;;;;;;4995966;28;93985;-31
2023/06/02 06:35:38;;;;;;;14.00;4.95;;;11.80;99.90;;;;;;4995307;28;93886;-35
2023/06/02 06:38:04;;;;;;;14.35;3.70;;;11.80;99.90;;;;;;4996529;28;93530;-32
2023/06/02 06:40:31;;;;;;;6.97;4.05;;;11.90;99.90;;;;;;4995166;28;93057;-34
2023/06/02 06:42:57;;;;;;;15.25;5.60;;;11.90;99.90;;;;;;4996617;28;95066;-33
2023/06/02 06:45:23;;;;;;;14.18;4.43;;;12.10;99.90;;;;;;4994921;28;94360;-32
2023/06/02 06:47:50;;;;;;;23.92;5.97;;;12.10;99.90;;;;;;4995700;28;94555;-34
2023/06/02 06:50:15;;;;;;;13.00;4.75;;;12.20;99.90;;;;;;4995734;28;93120;-36
2023/06/02 06:52:41;;;;;;;6.47;3.67;;;12.20;99.90;;;;;;4995820;28;94066;-32
2023/06/02 06:55:07;;;;;;;9.63;4.22;;;12.30;99.90;;;;;;4995445;28;94446;-35
2023/06/02 06:57:33;;;;;;;11.82;3.83;;;12.40;99.90;;;;;;4996406;28;93383;-32
2023/06/02 06:59:59;;;;;;;20.73;6.00;;;12.40;99.90;;;;;;4994884;28;92336;-35
2023/06/02 07:02:24;;;;;;;17.67;6.20;;;12.50;99.90;;;;;;4995427;28;95586;-32
2023/06/02 07:04:51;;;;;;;11.35;4.30;;;12.60;99.90;;;;;;4995354;28;95383;-32
2023/06/02 07:07:17;;;;;;;9.38;5.22;;;12.60;99.90;;;;;;4995643;28;93328;-32
2023/06/02 07:09:43;;;;;;;19.42;5.20;;;12.60;99.90;;;;;;4995756;28;92858;-33
2023/06/02 07:12:08;;;;;;;14.52;4.53;;;12.60;99.90;;;;;;4995317;28;94641;-34
2023/06/02 07:14:34;;;;;;;15.93;5.10;;;12.60;99.90;;;;;;4995501;28;95349;-34
2023/06/02 07:17:00;;;;;;;30.15;6.38;;;12.70;99.90;;;;;;4995756;28;94442;-32
2023/06/02 07:19:25;;;;;;;13.40;5.10;;;12.90;99.90;;;;;;4995659;28;94111;-35
2023/06/02 07:21:54;;;;;;;19.88;6.03;;;12.90;99.90;;;;;;4995528;28;94919;-33
2023/06/02 07:24:20;;;;;;;;;;;13.00;99.90;;;;;;4990783;28;94388;-33
2023/06/02 07:26:45;;;;;;;21.00;6.00;;;13.00;99.90;;;;;;4975902;28;94280;-32
2023/06/02 07:29:11;;;;;;;12.07;4.45;;;13.10;99.90;;;;;;4975478;28;93199;-34
2023/06/02 07:31:37;;;;;;;11.55;4.53;;;13.10;99.90;;;;;;4975479;28;94739;-33
2023/06/02 07:34:03;;;;;;;10.75;5.15;;;13.30;99.90;;;;;;4973620;28;96571;-33
2023/06/02 07:36:28;;;;;;;17.30;5.53;;;13.30;99.90;;;;;;4974599;28;92964;-32
2023/06/02 07:38:54;;;;;;;12.20;6.10;;;13.30;99.90;;;;;;4974750;28;94758;-35
2023/06/02 07:41:20;;;;;;;11.38;4.93;;;13.60;99.90;;;;;;4974100;28;95155;-33
2023/06/02 07:43:46;;;;;;;19.63;6.15;;;13.90;99.90;;;;;;4975419;28;94776;-34
2023/06/02 07:46:12;;;;;;;20.60;7.10;;;14.10;99.90;;;;;;4957431;28;93238;-31
2023/06/02 07:48:38;;;;;;;14.30;6.07;;;14.10;99.90;;;;;;4975151;28;95486;-33
2023/06/02 07:51:03;;;;;;;12.43;5.95;;;14.30;99.90;;;;;;4973855;28;95942;-35
2023/06/02 07:53:29;;;;;;;19.67;7.65;;;14.50;99.90;;;;;;4973831;28;95003;-32
2023/06/02 07:55:56;;;;;;;29.25;7.03;;;14.70;99.90;;;;;;4974605;28;93880;-35
2023/06/02 07:58:21;;;;;;;26.52;7.82;;;15.10;99.90;;;;;;4974812;28;92572;-35
2023/06/02 08:00:48;;;;;;;10.35;6.45;;;15.40;99.90;;;;;;4974140;28;94909;-34
2023/06/02 08:03:14;;;;;;;27.35;7.60;;;15.80;99.90;;;;;;4974492;28;95117;-33
2023/06/02 08:05:39;;;;;;;31.98;8.13;;;16.20;99.90;;;;;;4975565;28;92518;-32
2023/06/02 08:08:05;;;;;;;16.67;6.40;;;16.70;99.90;;;;;;4975538;28;93565;-35
2023/06/02 08:10:31;;;;;;;13.13;6.88;;;16.80;99.90;;;;;;4974744;28;94762;-35
2023/06/02 08:12:57;;;;;;;18.95;6.80;;;17.00;99.90;;;;;;4973922;28;94482;-34
2023/06/02 08:15:23;;;;;;;10.40;6.82;;;16.70;99.90;;;;;;4974197;28;94956;-32
2023/06/02 08:17:48;;;;;;;16.25;6.90;;;16.80;99.90;;;;;;4975302;28;92151;-35
2023/06/02 08:20:16;;;;;;;13.30;7.88;;;16.60;99.90;;;;;;4973489;28;94954;-32
2023/06/02 08:22:44;;;;;;;12.65;6.28;;;16.40;99.90;;;;;;4973816;28;95147;-35
2023/06/02 08:25:10;;;;;;;;;;;16.30;99.90;;;;;;4974491;28;94718;-35
2023/06/02 08:27:36;;;;;;;16.17;5.63;;;16.10;99.90;;;;;;4975449;28;92109;-31
2023/06/02 08:30:04;;;;;;;9.65;6.25;;;16.10;99.90;;;;;;4972844;28;94654;-32
2023/06/02 08:32:29;;;;;;;11.47;5.90;;;16.50;99.90;;;;;;4973947;28;93318;-34
2023/06/02 08:34:56;;;;;;;19.15;7.97;;;16.90;99.90;;;;;;4974450;28;93220;-34
2023/06/02 08:37:22;;;;;;;15.50;7.28;;;17.00;99.90;;;;;;4973477;28;94671;-35
2023/06/02 08:39:50;;;;;;;16.98;7.38;;;17.20;99.90;;;;;;4974119;28;95959;-32
2023/06/02 08:42:16;;;;;;;15.55;6.20;;;17.70;99.90;;;;;;4974389;28;95182;-32
2023/06/02 08:44:43;;;;;;;15.75;4.43;;;17.80;99.90;;;;;;4974505;28;93709;-32
2023/06/02 08:47:13;;;;;;;8.47;4.23;;;17.90;99.90;;;;;;4973935;28;92228;-31
2023/06/02 08:49:41;;;;;;;12.48;4.05;;;17.90;99.90;;;;;;4973875;28;94520;-32
2023/06/02 08:52:11;;;;;;;12.63;4.35;;;18.20;99.90;;;;;;4972554;28;95335;-31
2023/06/02 08:54:39;;;;;;;6.70;4.43;;;18.00;99.90;;;;;;4974498;28;93494;-30
2023/06/02 08:57:05;;;;;;;15.18;6.32;;;18.30;99.90;;;;;;4975202;28;92799;-32
2023/06/02 08:59:31;;;;;;;13.57;4.32;;;18.20;99.90;;;;;;4973192;28;95890;-31
2023/06/02 09:02:00;;;;;;;11.38;5.72;;;18.50;99.90;;;;;;4972588;28;94928;-32
2023/06/02 09:04:27;;;;;;;12.65;4.72;;;18.50;99.90;;;;;;4974128;28;93902;-36
2023/06/02 09:07:11;;;;;;;13.43;4.78;;;18.60;99.90;;;;;;4973209;28;94086;-33
2023/06/02 09:09:42;;;;;;;9.43;3.38;;;18.80;99.90;;;;;;4977024;28;94902;-35
2023/06/02 09:12:08;;;;;;;7.07;3.22;;;18.90;91.60;;;;;;4976628;28;94530;-30
2023/06/02 09:14:37;;;;;;;10.70;4.05;;;19.10;94.90;;;;;;4977159;28;92087;-31
2023/06/02 09:17:03;;;;;;;8.23;3.35;;;19.00;86.40;;;;;;4976946;28;93430;-31
2023/06/02 09:19:49;;;;;;;9.55;3.25;;;19.00;88.10;;;;;;4977187;28;94711;-31
2023/06/02 09:22:15;;;;;;;13.13;3.67;;;19.30;95.10;;;;;;4975683;28;93082;-31
2023/06/02 09:24:41;;;;;;;8.07;3.58;;;19.20;89.80;;;;;;4961582;28;94647;-33
2023/06/02 09:27:12;;;;;;;8.25;3.92;;;19.30;85.30;;;;;;4956138;28;92831;-35
2023/06/02 09:29:38;;;;;;;9.07;3.47;;;19.40;86.70;;;;;;4938356;28;95212;-34
2023/06/02 09:32:10;;;;;;;11.90;4.28;;;19.50;92.60;;;;;;4923409;28;94976;-33
2023/06/02 09:34:36;;;;;;;8.52;3.50;;;19.60;88.70;;;;;;4957417;28;93035;-34
2023/06/02 09:37:13;;;;;;;11.40;4.75;;;19.90;89.10;;;;;;4957231;28;93292;-35
2023/06/02 09:39:46;;;;;;;7.78;4.70;;;19.70;93.80;;;;;;4957562;28;94326;-34
2023/06/02 09:42:16;;;;;;;17.38;4.93;;;19.80;90.00;;;;;;4956685;28;96625;-31
2023/06/02 09:45:02;;;;;;;20.17;4.45;;;19.60;84.30;;;;;;4957257;28;94304;-33
2023/06/02 09:47:28;;;;;;;8.95;3.75;;;19.40;84.40;;;;;;4956875;28;92303;-33
2023/06/02 09:49:53;;;;;;;13.80;4.03;;;19.50;91.40;;;;;;4957142;28;94792;-34
2023/06/02 09:52:19;;;;;;;9.93;3.35;;;19.60;86.40;;;;;;4956417;28;94461;-30
2023/06/02 09:54:47;;;;;;;9.07;3.88;;;19.70;92.20;;;;;;4957067;28;93086;-31
2023/06/02 09:57:14;;;;;;;13.57;4.07;;;20.00;89.30;;;;;;4956926;28;94417;-31
2023/06/02 09:59:40;;;;;;;6.57;4.20;;;20.20;80.90;;;;;;4955932;28;94364;-33
2023/06/02 10:02:09;;;;;;;8.85;4.05;;;20.20;84.70;;;;;;4979956;28;94014;-33
2023/06/02 10:04:35;;;;;;;8.82;3.45;;;20.20;78.60;;;;;;4996971;28;93164;-31
2023/06/02 10:07:23;;;;;;;6.72;3.25;;;19.70;74.90;;;;;;4995912;28;93185;-32
2023/06/02 10:10:07;;;;;;;6.78;3.50;;;19.50;74.40;;;;;;4967452;28;95177;-34
2023/06/02 10:12:51;;;;;;;5.22;3.90;;;19.30;77.10;;;;;;4950906;28;96090;-33
2023/06/02 10:16:01;;;;;;;11.30;3.95;;;19.10;80.10;;;;;;4975496;28;93406;-32
2023/06/02 10:18:50;;;;;;;10.10;3.55;;;19.20;89.00;;;;;;4976059;28;92255;-31
2023/06/02 10:21:30;;;;;;;14.15;3.35;;;19.50;97.90;;;;;;4975368;28;94947;-35
2023/06/02 10:24:10;;;;;;;7.30;3.22;;;19.50;79.00;;;;;;4954361;28;95266;-32
2023/06/02 10:27:00;;;;;;;8.82;3.35;;;19.20;80.60;;;;;;4954985;28;93293;-33
2023/06/02 10:29:28;;;;;;;8.25;3.13;;;19.30;90.90;;;;;;4954388;28;93444;-32
2023/06/02 10:31:53;;;;;;;4.65;2.80;;;19.10;78.90;;;;;;4955502;28;94677;-33
2023/06/02 10:34:34;;;;;;;3.88;2.60;;;19.10;75.20;;;;;;4956057;28;93177;-33
2023/06/02 10:37:00;;;;;;;5.03;2.00;;;18.90;81.30;;;;;;4954637;28;92242;-31
2023/06/02 10:39:41;;;;;;;7.55;3.53;;;18.90;82.10;;;;;;4956708;28;93579;-35
2023/06/02 10:42:08;;;;;;;4.80;2.17;;;19.00;80.80;;;;;;4957635;28;94824;-33
2023/06/02 10:44:34;;;;;;;5.53;2.03;;;18.90;77.60;;;;;;4955148;28;95671;-33
2023/06/02 10:47:18;;;;;;;3.78;1.95;;;19.00;77.10;;;;;;4955805;28;94911;-34
2023/06/02 10:49:53;;;;;;;3.78;1.90;;;19.10;78.30;;;;;;4955891;28;93032;-32
2023/06/02 10:52:19;;;;;;;3.30;2.40;;;18.90;76.90;;;;;;4955114;28;94870;-32
2023/06/02 10:54:45;;;;;;;3.20;1.92;;;18.90;78.30;;;;;;4955286;28;94581;-33
2023/06/02 10:57:12;;;;;;;4.88;2.05;;;18.80;74.30;;;;;;4954096;28;93017;-32
2023/06/02 10:59:38;;;;;;;3.22;1.88;;;18.80;73.60;;;;;;4955410;28;93771;-33
2023/06/02 11:02:04;;;;;;;3.35;1.77;;;18.90;74.30;;;;;;4954225;28;92896;-31
2023/06/02 11:04:31;;;;;;;3.33;1.88;;;19.00;73.70;;;;;;4953585;28;93370;-34
2023/06/02 11:07:18;;;;;;;4.53;1.77;;;18.90;72.50;;;;;;4955299;28;94424;-33
2023/06/02 11:09:45;;;;;;;4.07;2.38;;;19.20;72.90;;;;;;4955849;28;94054;-31
2023/06/02 11:12:11;;;;;;;3.03;1.60;;;19.30;70.50;;;;;;4954711;28;95700;-30
2023/06/02 11:15:02;;;;;;;3.72;1.90;;;19.60;71.70;;;;;;4955091;28;95150;-30
2023/06/02 11:17:32;;;;;;;3.97;2.33;;;19.40;71.00;;;;;;4955403;28;94417;-31
2023/06/02 11:19:58;;;;;;;4.63;2.15;;;19.60;69.10;;;;;;4955325;28;92312;-36
2023/06/02 11:22:25;;;;;;;2.95;2.10;;;19.70;71.90;;;;;;4955837;28;94875;-33
2023/06/02 11:24:51;;;;;;;9.88;1.75;;;19.80;69.90;;;;;;4974372;28;94964;-35
2023/06/02 11:27:19;;;;;;;3.90;1.85;;;19.70;68.90;;;;;;4975680;28;92836;-34
2023/06/02 11:29:45;;;;;;;2.67;2.28;;;19.40;69.70;;;;;;4974671;28;92009;-35
2023/06/02 11:32:15;;;;;;;2.67;2.25;;;19.50;72.00;;;;;;4973991;28;93249;-35
2023/06/02 11:34:41;;;;;;;5.47;2.58;;;19.60;72.90;;;;;;4975023;28;93975;-34
2023/06/02 11:37:20;;;;;;;3.50;1.98;;;19.50;70.80;;;;;;4974478;28;94579;-32
2023/06/02 11:39:50;;;;;;;4.50;1.85;;;19.50;70.00;;;;;;4975316;28;93963;-34
2023/06/02 11:42:16;;;;;;;4.10;2.17;;;19.60;71.90;;;;;;4956579;28;95042;-34
2023/06/02 11:44:51;;;;;;;2.53;1.63;;;19.70;70.30;;;;;;4974036;28;94691;-34
2023/06/02 11:47:20;;;;;;;4.30;2.05;;;19.80;69.00;;;;;;4974943;28;93594;-34
2023/06/02 11:49:47;;;;;;;2.88;2.17;;;19.90;68.80;;;;;;4963006;28;92225;-34
2023/06/02 11:52:13;;;;;;;2.60;2.10;;;19.90;67.80;;;;;;4975221;28;95105;-34
2023/06/02 11:54:50;;;;;;;3.15;2.17;;;20.00;67.90;;;;;;4956388;28;94868;-32
2023/06/02 11:57:36;;;;;;;4.60;2.47;;;19.80;66.10;;;;;;4937939;28;93380;-31
2023/06/02 12:00:12;;;;;;;6.70;2.33;;;19.70;66.60;;;;;;4974651;28;93259;-31
2023/06/02 12:02:43;;;;;;;8.95;2.85;;;19.80;68.40;;;;;;4974133;28;95898;-33
2023/06/02 12:05:28;;;;;;;2.95;1.80;;;19.90;63.50;;;;;;4973998;28;96462;-32
2023/06/02 12:07:54;;;;;;;3.03;1.98;;;19.80;65.10;;;;;;4974156;28;92443;-35
2023/06/02 12:10:19;;;;;;;4.25;1.80;;;19.90;64.70;;;;;;4974716;28;93258;-32
2023/06/02 12:12:46;;;;;;;2.75;2.10;;;19.80;65.30;;;;;;4974439;28;95348;-35
2023/06/02 12:15:14;;;;;;;4.20;1.80;;;19.80;65.70;;;;;;4973912;28;94617;-34
2023/06/02 12:17:41;;;;;;;9.80;2.67;;;19.80;65.90;;;;;;4957751;28;94583;-33
2023/06/02 12:20:07;;;;;;;2.83;2.13;;;19.80;62.70;;;;;;4956802;28;93335;-33
2023/06/02 12:22:32;;;;;;;2.35;2.00;;;19.80;62.30;;;;;;4973340;28;94461;-33
2023/06/02 12:25:11;;;;;;;3.15;1.95;;;20.10;63.00;;;;;;4974576;28;94486;-32
2023/06/02 12:27:36;;;;;;;3.40;2.20;;;20.10;60.60;;;;;;4974764;28;94759;-32
2023/06/02 12:30:02;;;;;;;3.72;1.85;;;19.90;61.10;;;;;;4973435;28;93758;-32
2023/06/02 12:32:28;;;;;;;3.13;2.08;;;20.00;63.20;;;;;;4956191;28;94547;-35
2023/06/02 12:34:53;;;;;;;3.85;2.30;;;20.10;62.30;;;;;;4974690;28;94356;-36
2023/06/02 12:37:19;;;;;;;3.92;2.30;;;19.80;63.20;;;;;;4974620;28;93651;-34
2023/06/02 12:39:45;;;;;;;5.15;2.28;;;19.90;62.50;;;;;;4951905;28;92934;-32
2023/06/02 12:42:14;;;;;;;3.13;1.92;;;20.00;63.10;;;;;;4952891;28;94927;-33
2023/06/02 12:44:40;;;;;;;6.15;2.03;;;20.10;63.10;;;;;;4955188;28;94392;-37
2023/06/02 12:47:06;;;;;;;4.85;2.63;;;20.30;64.00;;;;;;4954761;28;93022;-35